Time;durP1;ratioP1;P1;durP2;ratioP2;P2;SDS_P1;SDS_P2;PMS_P1;PMS_P2;Temp;Humidity;BMP_temperature;BMP_pressure;BME280_temperature;BME280_humidity;BME280_pressure;Samples;Min_cycle;Max_cycle;Signal;HPM_P1;HPM_P2
2022/04/23 00:01:59;;;;;;;;;;;;;;;17.44;46.18;97948.81;4467283;32;34576;-82
2022/04/23 00:04:29;;;;;;;;;;;;;;;17.68;45.80;97949.72;4453872;32;34055;-80
2022/04/23 00:06:59;;;;;;;;;;;;;;;17.40;46.83;97952.47;4465122;32;34627;-81
2022/04/23 00:09:30;;;;;;;;;;;;;;;17.64;46.17;97949.91;4465445;32;34909;-82
2022/04/23 00:11:58;;;;;;;;;;;;;;;17.86;45.36;97952.66;4467130;32;34087;-81
2022/04/23 00:14:26;;;;;;;;;;;;;;;17.80;44.59;97950.25;4467205;32;34310;-81
2022/04/23 00:16:57;;;;;;;;;;;;;;;17.65;45.09;97952.47;4467502;32;34232;-80
2022/04/23 00:19:24;;;;;;;;;;;;;;;17.91;45.04;97959.44;4467408;32;34377;-81
2022/04/23 00:21:51;;;;;;;;;;;;;;;18.30;44.40;97958.87;4467111;32;34339;-81
2022/04/23 00:24:20;;;;;;;;;;;;;;;17.97;45.62;97959.22;4465546;32;32255;-80
2022/04/23 00:26:47;;;;;;;;;;;;;;;17.72;46.52;97960.97;4466084;32;35092;-81
2022/04/23 00:29:15;;;;;;;;;;;;;;;17.34;46.59;97964.91;4467156;32;34410;-79
2022/04/23 00:31:42;;;;;;;;;;;;;;;17.75;45.84;97958.28;4466875;32;34825;-80
2022/04/23 00:34:10;;;;;;;;;;;;;;;17.56;46.41;97958.03;4467706;32;33136;-80
2022/04/23 00:36:38;;;;;;;;;;;;;;;17.48;46.73;97960.06;4453195;32;34356;-81
2022/04/23 00:39:06;;;;;;;;;;;;;;;16.80;48.57;97958.81;4467104;32;34313;-80
2022/04/23 00:41:46;;;;;;;;;;;;;;;17.06;47.73;97957.13;4452341;32;33936;-81
2022/04/23 00:44:17;;;;;;;;;;;;;;;16.13;50.13;97964.28;4460326;32;34157;-81
2022/04/23 00:46:44;;;;;;;;;;;;;;;17.14;47.55;97960.34;4450915;32;34353;-82
2022/04/23 00:49:12;;;;;;;;;;;;;;;16.46;49.38;97966.81;4461221;32;34612;-81
2022/04/23 00:51:40;;;;;;;;;;;;;;;17.43;46.99;97960.22;4467035;32;33889;-81
2022/04/23 00:54:07;;;;;;;;;;;;;;;17.77;46.16;97966.06;4465613;32;33274;-81
2022/04/23 00:56:35;;;;;;;;;;;;;;;17.41;47.10;97969.88;4466995;32;33345;-81
2022/04/23 00:59:05;;;;;;;;;;;;;;;17.52;46.77;97962.50;4465258;32;35028;-80
2022/04/23 01:01:32;;;;;;;;;;;;;;;16.91;48.09;97963.72;4446522;32;34132;-81
2022/04/23 01:04:02;;;;;;;;;;;;;;;16.70;48.70;97967.81;4467170;32;33573;-81
2022/04/23 01:06:33;;;;;;;;;;;;;;;16.51;49.19;97965.75;4467343;32;34218;-82
2022/04/23 01:09:05;;;;;;;;;;;;;;;16.66;48.82;97964.44;4453679;32;34368;-81
2022/04/23 01:11:32;;;;;;;;;;;;;;;16.85;47.98;97962.12;4465638;32;33892;-81
2022/04/23 01:14:01;;;;;;;;;;;;;;;17.13;47.69;97963.88;4452144;32;33567;-82
2022/04/23 01:16:28;;;;;;;;;;;;;;;16.64;49.19;97965.41;4463096;32;34219;-81
2022/04/23 01:18:56;;;;;;;;;;;;;;;16.89;48.03;97963.72;4460145;32;34984;-81
2022/04/23 01:21:23;;;;;;;;;;;;;;;15.92;51.10;97970.97;4456629;32;33769;-81
2022/04/23 01:23:53;;;;;;;;;;;;;;;16.90;48.37;97970.72;4464631;32;34170;-82
2022/04/23 01:26:30;;;;;;;;;;;;;;;16.39;49.81;97976.59;4466837;32;35055;-81
2022/04/23 01:28:58;;;;;;;;;;;;;;;17.05;48.45;97968.47;4452783;32;34422;-80
2022/04/23 01:31:25;;;;;;;;;;;;;;;17.42;47.47;97962.88;4452358;32;35055;-81
2022/04/23 01:33:53;;;;;;;;;;;;;;;17.10;48.17;97969.22;4466585;32;34349;-81
2022/04/23 01:36:20;;;;;;;;;;;;;;;16.71;49.17;97964.31;4466847;32;35228;-80
2022/04/23 01:38:49;;;;;;;;;;;;;;;16.40;50.02;97967.88;4465693;32;34227;-82
2022/04/23 01:41:16;;;;;;;;;;;;;;;16.44;49.84;97969.47;4465269;32;34022;-81
2022/04/23 01:43:43;;;;;;;;;;;;;;;16.42;50.03;97966.03;4466204;32;33398;-81
2022/04/23 01:46:11;;;;;;;;;;;;;;;16.69;49.51;97973.94;4465475;32;33988;-81
2022/04/23 01:48:38;;;;;;;;;;;;;;;16.47;50.14;97969.38;4448752;32;35093;-80
2022/04/23 01:51:06;;;;;;;;;;;;;;;16.54;49.59;97976.13;4452175;32;34635;-81
2022/04/23 01:53:33;;;;;;;;;;;;;;;16.85;49.03;97975.22;4466777;32;33343;-81
2022/04/23 01:56:00;;;;;;;;;;;;;;;15.25;53.28;97983.16;4465829;32;33666;-80
2022/04/23 01:58:28;;;;;;;;;;;;;;;15.17;54.15;97979.91;4452165;32;34948;-81
2022/04/23 02:00:55;;;;;;;;;;;;;;;15.10;54.60;97981.78;4466195;32;34023;-81
2022/04/23 02:03:23;;;;;;;;;;;;;;;15.45;53.69;97991.34;4466177;32;33401;-83
2022/04/23 02:05:50;;;;;;;;;;;;;;;15.59;53.17;97985.78;4466544;32;34225;-83
2022/04/23 02:08:18;;;;;;;;;;;;;;;15.02;54.75;97989.81;4466622;32;34829;-80
2022/04/23 02:10:47;;;;;;;;;;;;;;;15.57;53.21;97985.81;4452340;32;34233;-81
2022/04/23 02:13:15;;;;;;;;;;;;;;;14.99;54.96;97989.03;4466888;32;33149;-81
2022/04/23 02:15:42;;;;;;;;;;;;;;;14.30;56.86;97995.75;4465735;32;33891;-81
2022/04/23 02:18:10;;;;;;;;;;;;;;;15.37;53.95;97985.47;4465831;32;33912;-81
2022/04/23 02:20:38;;;;;;;;;;;;;;;15.14;54.29;97991.25;4466293;32;34306;-82
2022/04/23 02:23:06;;;;;;;;;;;;;;;15.03;54.84;97983.69;4459313;32;34032;-82
2022/04/23 02:25:36;;;;;;;;;;;;;;;15.33;53.95;97983.81;4462232;32;33758;-80
2022/04/23 02:28:04;;;;;;;;;;;;;;;15.97;51.98;97983.91;4465492;32;33870;-81
2022/04/23 02:30:32;;;;;;;;;;;;;;;15.62;52.89;97984.84;4466150;32;34896;-81
2022/04/23 02:33:00;;;;;;;;;;;;;;;15.72;52.58;97995.06;4452502;32;34167;-81
2022/04/23 02:35:27;;;;;;;;;;;;;;;15.15;54.11;97992.12;4465394;32;34133;-81
2022/04/23 02:37:56;;;;;;;;;;;;;;;15.67;52.62;97990.81;4465324;32;34960;-81
2022/04/23 02:40:25;;;;;;;;;;;;;;;15.65;52.63;98000.44;4465895;32;34429;-81
2022/04/23 02:42:53;;;;;;;;;;;;;;;15.29;53.53;98003.09;4464531;32;32961;-81
2022/04/23 02:45:20;;;;;;;;;;;;;;;15.71;52.43;97993.31;4461200;32;34253;-81
2022/04/23 02:47:48;;;;;;;;;;;;;;;16.07;50.87;98000.22;4466092;32;35159;-82
2022/04/23 02:50:22;;;;;;;;;;;;;;;16.04;51.11;97991.53;4466478;32;34281;-80
2022/04/23 02:52:49;;;;;;;;;;;;;;;16.32;50.64;98006.44;4452208;32;33570;-82
2022/04/23 02:55:16;;;;;;;;;;;;;;;16.31;50.77;97996.87;4466685;32;33876;-81
2022/04/23 02:57:44;;;;;;;;;;;;;;;15.74;52.14;98002.84;4467266;32;35353;-82
2022/04/23 03:00:11;;;;;;;;;;;;;;;16.09;51.34;97998.41;4467877;32;34232;-81
2022/04/23 03:02:39;;;;;;;;;;;;;;;15.74;52.14;97997.59;4466081;32;33539;-80
2022/04/23 03:05:07;;;;;;;;;;;;;;;16.15;51.13;98004.31;4467719;32;33993;-80
2022/04/23 03:07:35;;;;;;;;;;;;;;;16.04;51.30;98001.16;4467931;32;35212;-80
2022/04/23 03:10:05;;;;;;;;;;;;;;;15.87;51.71;98006.81;4466563;32;34978;-81
2022/04/23 03:12:33;;;;;;;;;;;;;;;16.01;51.16;97999.47;4452112;32;33312;-81
2022/04/23 03:15:00;;;;;;;;;;;;;;;16.65;49.66;97993.28;4453306;32;33851;-81
2022/04/23 03:17:28;;;;;;;;;;;;;;;16.39;50.25;97999.28;4453797;32;33886;-81
2022/04/23 03:19:55;;;;;;;;;;;;;;;16.17;50.88;98002.50;4465538;32;35070;-82
2022/04/23 03:22:22;;;;;;;;;;;;;;;16.71;49.35;97991.34;4466722;32;32800;-81
2022/04/23 03:24:49;;;;;;;;;;;;;;;16.45;49.95;98007.81;4467375;32;34402;-81
2022/04/23 03:27:18;;;;;;;;;;;;;;;16.41;50.11;98002.72;4467584;32;33920;-82
2022/04/23 03:29:45;;;;;;;;;;;;;;;16.45;50.09;98009.56;4467069;32;33658;-81
2022/04/23 03:32:13;;;;;;;;;;;;;;;16.59;49.79;98007.38;4467206;32;34391;-82
2022/04/23 03:34:42;;;;;;;;;;;;;;;15.75;51.76;98012.37;4467032;32;33867;-81
2022/04/23 03:37:09;;;;;;;;;;;;;;;15.41;52.77;98018.44;4467695;32;34129;-81
2022/04/23 03:39:36;;;;;;;;;;;;;;;15.76;51.97;98027.19;4466728;32;35303;-81
2022/04/23 03:42:04;;;;;;;;;;;;;;;15.98;51.27;98017.84;4467119;32;33273;-80
2022/04/23 03:44:31;;;;;;;;;;;;;;;16.28;50.67;98025.75;4466429;32;33945;-82
2022/04/23 03:46:59;;;;;;;;;;;;;;;16.37;50.30;98028.09;4452317;32;34485;-81
2022/04/23 03:49:26;;;;;;;;;;;;;;;16.54;49.87;98030.22;4467760;32;34915;-81
2022/04/23 03:51:54;;;;;;;;;;;;;;;16.76;49.33;98026.09;4466975;32;33403;-81
2022/04/23 03:54:21;;;;;;;;;;;;;;;16.64;49.30;98022.97;4465996;32;34397;-81
2022/04/23 03:56:49;;;;;;;;;;;;;;;16.65;49.42;98025.53;4464741;32;33908;-81
2022/04/23 03:59:20;;;;;;;;;;;;;;;16.48;49.86;98033.87;4453922;32;33977;-84
2022/04/23 04:01:48;;;;;;;;;;;;;;;16.30;50.36;98034.41;4466621;32;33299;-81
2022/04/23 04:04:16;;;;;;;;;;;;;;;16.02;51.12;98045.66;4467252;32;33739;-84
2022/04/23 04:06:43;;;;;;;;;;;;;;;15.96;51.30;98035.34;4463498;32;35265;-81
2022/04/23 04:09:10;;;;;;;;;;;;;;;15.42;52.72;98046.28;4464400;32;34793;-81
2022/04/23 04:14:25;;;;;;;;;;;;;;;16.46;50.08;98043.53;4455119;32;34305;-82
2022/04/23 04:16:52;;;;;;;;;;;;;;;16.22;50.67;98047.69;4467453;32;34429;-81
2022/04/23 04:19:19;;;;;;;;;;;;;;;16.73;49.62;98048.84;4453657;32;34995;-83
2022/04/23 04:21:46;;;;;;;;;;;;;;;16.81;49.23;98044.28;4453255;32;33091;-81
2022/04/23 04:24:14;;;;;;;;;;;;;;;17.16;48.50;98037.06;4466451;32;34379;-81
2022/04/23 04:26:41;;;;;;;;;;;;;;;17.35;47.92;98043.47;4466731;32;34270;-81
2022/04/23 04:29:09;;;;;;;;;;;;;;;17.93;46.53;98052.00;4467195;32;34792;-82
2022/04/23 04:31:49;;;;;;;;;;;;;;;18.29;45.68;98045.50;4466211;32;33381;-81
2022/04/23 04:34:17;;;;;;;;;;;;;;;17.99;46.07;98046.56;4450555;32;33699;-81
2022/04/23 04:36:45;;;;;;;;;;;;;;;18.41;45.40;98051.19;4466502;32;34803;-81
2022/04/23 04:39:12;;;;;;;;;;;;;;;17.87;46.46;98049.59;4467450;32;34299;-81
2022/04/23 04:41:39;;;;;;;;;;;;;;;17.37;47.61;98046.03;4467146;32;34363;-81
2022/04/23 04:44:07;;;;;;;;;;;;;;;17.82;46.51;98054.16;4466289;32;34013;-81
2022/04/23 04:46:35;;;;;;;;;;;;;;;17.31;47.84;98054.91;4466462;32;34113;-81
2022/04/23 04:49:03;;;;;;;;;;;;;;;16.92;48.82;98054.41;4466698;32;34202;-80
2022/04/23 04:51:30;;;;;;;;;;;;;;;16.79;49.21;98059.19;4467786;32;33420;-83
2022/04/23 04:53:58;;;;;;;;;;;;;;;15.99;51.16;98052.72;4466189;32;34350;-81
2022/04/23 04:56:26;;;;;;;;;;;;;;;16.29;50.35;98057.09;4463668;32;34071;-81
2022/04/23 04:58:55;;;;;;;;;;;;;;;16.02;51.29;98058.72;4453115;32;34076;-82
2022/04/23 05:01:22;;;;;;;;;;;;;;;16.91;48.77;98053.56;4464806;32;34067;-83
2022/04/23 05:03:51;;;;;;;;;;;;;;;16.71;49.42;98063.75;4467439;32;35433;-82
2022/04/23 05:06:24;;;;;;;;;;;;;;;16.70;49.76;98054.16;4453455;32;35212;-81
2022/04/23 05:08:51;;;;;;;;;;;;;;;16.40;50.53;98062.03;4467795;32;33939;-82
2022/04/23 05:11:18;;;;;;;;;;;;;;;16.44;50.38;98063.66;4467875;32;31816;-81
2022/04/23 05:13:46;;;;;;;;;;;;;;;16.64;50.16;98055.22;4467648;32;34326;-82
2022/04/23 05:16:13;;;;;;;;;;;;;;;17.48;48.19;98050.00;4467115;32;34383;-81
2022/04/23 05:18:40;;;;;;;;;;;;;;;17.77;47.46;98050.84;4467128;32;34383;-81
2022/04/23 05:21:08;;;;;;;;;;;;;;;17.27;48.92;98063.78;4467611;32;33852;-83
2022/04/23 05:23:35;;;;;;;;;;;;;;;17.35;48.77;98068.78;4467422;32;35256;-81
2022/04/23 05:26:03;;;;;;;;;;;;;;;16.88;50.08;98078.97;4467098;32;35114;-82
2022/04/23 05:28:30;;;;;;;;;;;;;;;17.62;48.36;98070.53;4467201;32;34153;-80
2022/04/23 05:30:58;;;;;;;;;;;;;;;17.53;48.45;98076.03;4467128;32;34189;-82
2022/04/23 05:33:25;;;;;;;;;;;;;;;18.02;46.84;98068.34;4453108;32;34311;-82
2022/04/23 05:35:53;;;;;;;;;;;;;;;17.78;47.63;98073.50;4467035;32;34988;-81
2022/04/23 05:38:20;;;;;;;;;;;;;;;17.48;48.21;98080.59;4467258;32;34257;-82
2022/04/23 05:40:48;;;;;;;;;;;;;;;17.36;48.60;98076.59;4467015;32;33205;-81
2022/04/23 05:43:16;;;;;;;;;;;;;;;17.52;47.46;98076.97;4465065;32;34909;-81
2022/04/23 05:45:46;;;;;;;;;;;;;;;17.95;46.78;98080.78;4452725;32;34481;-80
2022/04/23 05:48:13;;;;;;;;;;;;;;;18.18;46.12;98073.00;4465399;32;34263;-80
2022/04/23 05:50:40;;;;;;;;;;;;;;;18.12;46.46;98088.09;4458186;32;33598;-82
2022/04/23 05:53:08;;;;;;;;;;;;;;;18.27;46.63;98087.56;4467101;32;35029;-81
2022/04/23 05:55:35;;;;;;;;;;;;;;;18.08;47.25;98086.50;4466490;32;34643;-81
2022/04/23 05:58:02;;;;;;;;;;;;;;;17.43;48.25;98088.59;4466850;32;34080;-81
2022/04/23 06:00:30;;;;;;;;;;;;;;;18.29;45.87;98085.72;4466615;32;34305;-81
2022/04/23 06:02:57;;;;;;;;;;;;;;;17.76;47.20;98096.28;4466758;32;33639;-82
2022/04/23 06:05:24;;;;;;;;;;;;;;;18.63;45.06;98087.13;4452925;32;35065;-82
2022/04/23 06:07:52;;;;;;;;;;;;;;;18.95;44.95;98093.84;4465074;32;34946;-81
2022/04/23 06:10:19;;;;;;;;;;;;;;;18.90;44.97;98099.28;4466582;32;33661;-81
2022/04/23 06:12:46;;;;;;;;;;;;;;;19.23;44.81;98105.91;4464258;32;34430;-82
2022/04/23 06:15:14;;;;;;;;;;;;;;;19.51;44.15;98105.66;4466656;32;34474;-83
2022/04/23 06:17:41;;;;;;;;;;;;;;;19.63;44.90;98105.22;4450452;32;34187;-82
2022/04/23 06:20:09;;;;;;;;;;;;;;;19.40;44.75;98117.47;4464177;32;32932;-82
2022/04/23 06:22:36;;;;;;;;;;;;;;;19.39;43.76;98104.38;4465152;32;33705;-82
2022/04/23 06:25:04;;;;;;;;;;;;;;;19.37;44.94;98114.94;4467109;32;34318;-82
2022/04/23 06:27:32;;;;;;;;;;;;;;;18.85;45.01;98121.34;4465921;32;33979;-83
2022/04/23 06:29:59;;;;;;;;;;;;;;;19.25;44.79;98122.47;4467298;32;34324;-82
2022/04/23 06:32:26;;;;;;;;;;;;;;;18.44;46.21;98135.03;4451781;32;33771;-82
2022/04/23 06:34:53;;;;;;;;;;;;;;;19.18;44.66;98137.62;4467265;32;34182;-82
2022/04/23 06:37:21;;;;;;;;;;;;;;;19.24;44.68;98137.34;4467772;32;35039;-83
2022/04/23 06:39:49;;;;;;;;;;;;;;;19.71;43.59;98145.19;4466624;32;32874;-82
2022/04/23 06:42:16;;;;;;;;;;;;;;;19.39;43.12;98147.28;4453849;32;34760;-84
2022/04/23 06:44:44;;;;;;;;;;;;;;;18.82;44.84;98148.56;4466403;32;34345;-81
2022/04/23 06:47:14;;;;;;;;;;;;;;;19.04;45.04;98153.88;4467850;32;34627;-82
2022/04/23 06:49:41;;;;;;;;;;;;;;;17.87;47.84;98151.84;4468478;32;33094;-82
2022/04/23 06:52:08;;;;;;;;;;;;;;;18.24;47.46;98155.87;4468258;32;34805;-82
2022/04/23 06:54:35;;;;;;;;;;;;;;;18.89;46.15;98159.72;4468097;32;34310;-85
2022/04/23 06:57:03;;;;;;;;;;;;;;;18.99;45.73;98163.72;4467654;32;34312;-84
2022/04/23 06:59:31;;;;;;;;;;;;;;;17.86;48.00;98160.62;4468388;32;34316;-82
2022/04/23 07:02:02;;;;;;;;;;;;;;;18.28;46.96;98156.63;4468288;32;34465;-82
2022/04/23 07:04:30;;;;;;;;;;;;;;;18.67;46.61;98162.22;4467431;32;33974;-82
2022/04/23 07:06:57;;;;;;;;;;;;;;;19.19;45.42;98162.97;4467984;32;34139;-82
2022/04/23 07:09:24;;;;;;;;;;;;;;;18.58;46.77;98173.06;4467937;32;33104;-83
2022/04/23 07:11:51;;;;;;;;;;;;;;;18.11;48.46;98180.81;4467130;32;34962;-82
2022/04/23 07:14:19;;;;;;;;;;;;;;;19.01;45.01;98174.16;4468312;32;34205;-82
2022/04/23 07:16:48;;;;;;;;;;;;;;;19.13;45.10;98184.19;4467781;32;33971;-83
2022/04/23 07:19:15;;;;;;;;;;;;;;;18.86;45.98;98183.47;4468450;32;34068;-86
2022/04/23 07:21:42;;;;;;;;;;;;;;;18.27;46.47;98176.75;4468441;32;34332;-85
2022/04/23 07:24:11;;;;;;;;;;;;;;;18.75;45.96;98180.34;4466853;32;35210;-84
2022/04/23 07:26:38;;;;;;;;;;;;;;;18.01;47.19;98184.66;4465678;32;35064;-82
2022/04/23 07:29:07;;;;;;;;;;;;;;;18.55;46.47;98181.91;4468080;32;33953;-82
2022/04/23 07:31:36;;;;;;;;;;;;;;;18.98;45.21;98187.41;4468132;32;35177;-84
2022/04/23 07:39:59;;;;;;;;;;;;;;;17.63;48.47;98208.53;4418780;32;33362;-82
2022/04/23 07:42:27;;;;;;;;;;;;;;;18.31;45.98;98199.34;4419171;32;33850;-82
2022/04/23 07:44:55;;;;;;;;;;;;;;;19.14;43.51;98199.06;4443807;32;34597;-82
2022/04/23 07:47:23;;;;;;;;;;;;;;;18.20;46.52;98202.34;4467892;32;34235;-82
2022/04/23 07:49:51;;;;;;;;;;;;;;;18.43;46.41;98200.69;4467647;32;33171;-82
2022/04/23 07:52:18;;;;;;;;;;;;;;;19.22;43.86;98197.00;4467558;32;34337;-82
2022/04/23 07:54:46;;;;;;;;;;;;;;;19.13;43.99;98202.59;4467921;32;34455;-81
2022/04/23 07:57:13;;;;;;;;;;;;;;;19.10;44.34;98208.84;4468143;32;33998;-82
2022/04/23 07:59:41;;;;;;;;;;;;;;;17.91;48.42;98211.16;4467486;32;32596;-82
2022/04/23 08:02:09;;;;;;;;;;;;;;;17.83;48.40;98221.03;4451040;32;34266;-82
2022/04/23 08:04:36;;;;;;;;;;;;;;;17.98;47.96;98217.06;4468228;32;34227;-82
2022/04/23 08:07:04;;;;;;;;;;;;;;;18.48;47.34;98218.00;4460568;32;35079;-82
2022/04/23 08:09:37;;;;;;;;;;;;;;;18.66;47.31;98218.28;4461473;32;34248;-83
2022/04/23 08:12:06;;;;;;;;;;;;;;;18.89;46.59;98234.09;4467943;32;34390;-83
2022/04/23 08:14:33;;;;;;;;;;;;;;;18.29;47.66;98221.28;4455318;32;35258;-82
2022/04/23 08:17:01;;;;;;;;;;;;;;;18.12;48.32;98220.09;4453838;32;35015;-82
2022/04/23 08:19:29;;;;;;;;;;;;;;;18.74;46.55;98223.28;4467619;32;33984;-82
2022/04/23 08:21:56;;;;;;;;;;;;;;;19.07;46.18;98223.84;4453952;32;33900;-82
2022/04/23 08:24:24;;;;;;;;;;;;;;;17.43;49.34;98232.72;4453030;32;34515;-84
2022/04/23 08:26:51;;;;;;;;;;;;;;;18.48;47.11;98225.00;4466109;32;33671;-82
2022/04/23 08:32:05;;;;;;;;;;;;;;;19.30;44.64;98226.47;4461850;32;34142;-82
2022/04/23 08:34:32;;;;;;;;;;;;;;;18.03;48.03;98240.50;4467402;32;34224;-82
2022/04/23 08:37:00;;;;;;;;;;;;;;;18.83;46.79;98229.09;4467686;32;34212;-82
2022/04/23 08:39:27;;;;;;;;;;;;;;;19.04;45.65;98223.97;4467208;32;34310;-82
2022/04/23 08:41:54;;;;;;;;;;;;;;;19.11;45.45;98228.09;4467387;32;34013;-83
2022/04/23 08:44:22;;;;;;;;;;;;;;;19.15;45.06;98230.53;4467447;32;33681;-83
2022/04/23 08:46:50;;;;;;;;;;;;;;;19.21;44.32;98232.09;4463273;32;33875;-80
2022/04/23 08:49:19;;;;;;;;;;;;;;;19.71;44.41;98228.50;4452338;32;33337;-82
2022/04/23 08:51:46;;;;;;;;;;;;;;;19.23;44.03;98230.25;4467023;32;33923;-82
2022/04/23 08:54:14;;;;;;;;;;;;;;;19.39;42.81;98234.00;4466420;32;34102;-81
2022/04/23 08:56:42;;;;;;;;;;;;;;;19.33;42.48;98229.00;4464186;32;33679;-81
2022/04/23 08:59:12;;;;;;;;;;;;;;;19.00;43.62;98235.50;4467157;32;33612;-80
2022/04/23 09:01:47;;;;;;;;;;;;;;;20.21;40.84;98236.97;4467080;32;34024;-81
2022/04/23 09:04:14;;;;;;;;;;;;;;;19.61;42.09;98254.22;4466294;32;34085;-79
2022/04/23 09:06:42;;;;;;;;;;;;;;;20.25;40.85;98243.81;4464756;32;34015;-80
2022/04/23 09:09:14;;;;;;;;;;;;;;;20.49;40.47;98238.44;4467057;32;34195;-80
2022/04/23 09:11:42;;;;;;;;;;;;;;;19.88;41.25;98247.91;4453202;32;33793;-82
2022/04/23 09:14:10;;;;;;;;;;;;;;;19.27;43.12;98255.50;4452588;32;34845;-81
2022/04/23 09:25:12;;;;;;;;;;;;;;;19.12;45.18;98262.16;4460117;32;34082;-82
2022/04/23 09:27:43;;;;;;;;;;;;;;;19.68;43.20;98261.00;4466795;32;33947;-82
2022/04/23 09:30:12;;;;;;;;;;;;;;;20.75;40.81;98264.56;4453461;32;33494;-81
2022/04/23 09:32:58;;;;;;;;;;;;;;;18.66;47.08;98262.91;4456792;32;34370;-81
2022/04/23 09:35:25;;;;;;;;;;;;;;;19.11;45.97;98270.97;4464594;32;33934;-81
2022/04/23 09:40:39;;;;;;;;;;;;;;;19.37;44.94;98271.78;4466800;32;33813;-81
2022/04/23 09:43:07;;;;;;;;;;;;;;;19.96;43.59;98280.97;4466230;32;34144;-81
2022/04/23 09:45:39;;;;;;;;;;;;;;;19.75;44.27;98278.25;4465960;32;34173;-82
2022/04/23 09:48:12;;;;;;;;;;;;;;;19.83;43.76;98267.44;4462967;32;34181;-83
2022/04/23 09:50:40;;;;;;;;;;;;;;;19.35;44.84;98268.34;4451873;32;33208;-82
2022/04/23 09:53:11;;;;;;;;;;;;;;;19.98;43.75;98273.88;4456848;32;34281;-82
2022/04/23 09:55:38;;;;;;;;;;;;;;;20.46;42.40;98275.47;4465535;32;35082;-82
2022/04/23 09:58:07;;;;;;;;;;;;;;;20.35;42.48;98283.78;4453075;32;33866;-82
2022/04/23 10:00:36;;;;;;;;;;;;;;;19.92;43.69;98286.34;4465413;32;33244;-81
2022/04/23 10:03:06;;;;;;;;;;;;;;;20.20;42.69;98284.41;4466684;32;34228;-81
2022/04/23 10:06:00;;;;;;;;;;;;;;;20.44;42.15;98285.19;4465293;32;34968;-82
2022/04/23 10:08:29;;;;;;;;;;;;;;;19.99;41.44;98286.97;4464527;32;34164;-82
2022/04/23 10:11:11;;;;;;;;;;;;;;;19.36;43.93;98293.75;4452999;32;33883;-82
2022/04/23 10:13:43;;;;;;;;;;;;;;;20.06;42.51;98291.06;4452849;32;33828;-84
2022/04/23 10:16:10;;;;;;;;;;;;;;;20.27;41.80;98291.16;4466905;32;34525;-82
2022/04/23 10:18:38;;;;;;;;;;;;;;;19.90;41.86;98298.72;4452073;32;35380;-81
2022/04/23 10:21:09;;;;;;;;;;;;;;;19.84;42.48;98298.09;4466882;32;33139;-82
2022/04/23 10:23:46;;;;;;;;;;;;;;;19.86;42.46;98301.53;4452551;32;34260;-81
2022/04/23 10:26:14;;;;;;;;;;;;;;;19.64;42.57;98301.47;4465860;32;34531;-85
2022/04/23 10:28:42;;;;;;;;;;;;;;;19.90;42.21;98297.84;4467085;32;33506;-82
2022/04/23 10:31:11;;;;;;;;;;;;;;;19.77;42.24;98300.09;4452665;32;33416;-81
2022/04/23 10:33:40;;;;;;;;;;;;;;;19.93;41.99;98292.50;4452446;32;33687;-82
2022/04/23 10:36:10;;;;;;;;;;;;;;;19.81;42.54;98298.19;4452327;32;35231;-82
2022/04/23 10:38:40;;;;;;;;;;;;;;;19.64;42.95;98298.84;4463906;32;35077;-82
2022/04/23 10:41:07;;;;;;;;;;;;;;;20.22;41.78;98296.56;4451905;32;32524;-82
2022/04/23 10:43:34;;;;;;;;;;;;;;;20.17;41.38;98298.53;4452648;32;34317;-83
2022/04/23 10:46:04;;;;;;;;;;;;;;;20.45;41.42;98300.91;4463129;32;35322;-82
2022/04/23 10:48:32;;;;;;;;;;;;;;;20.78;39.68;98296.03;4456992;32;35058;-82
2022/04/23 10:51:00;;;;;;;;;;;;;;;20.50;40.57;98308.66;4466039;32;34448;-82
2022/04/23 10:53:28;;;;;;;;;;;;;;;20.69;40.30;98312.25;4451882;32;33844;-82
2022/04/23 10:56:05;;;;;;;;;;;;;;;20.63;40.88;98307.22;4451773;32;35147;-85
2022/04/23 10:58:33;;;;;;;;;;;;;;;20.22;41.46;98312.38;4464457;32;34193;-87
2022/04/23 11:01:20;;;;;;;;;;;;;;;20.62;40.69;98318.69;4464219;32;33555;-83
2022/04/23 11:03:55;;;;;;;;;;;;;;;21.00;39.72;98318.84;4448481;32;33941;-82
2022/04/23 11:12:20;;;;;;;;;;;;;;;20.84;40.54;98319.50;4438947;32;33316;-82
2022/04/23 11:14:48;;;;;;;;;;;;;;;20.81;40.48;98314.34;4456179;32;34377;-83
2022/04/23 11:17:20;;;;;;;;;;;;;;;21.17;39.21;98311.06;4449466;32;35345;-83
2022/04/23 11:19:52;;;;;;;;;;;;;;;20.31;41.15;98313.78;4453035;32;34705;-82
2022/04/23 11:22:21;;;;;;;;;;;;;;;19.09;43.57;98314.84;4468550;32;33222;-83
2022/04/23 11:24:49;;;;;;;;;;;;;;;20.85;40.11;98309.81;4453409;32;33877;-88
2022/04/23 11:27:48;;;;;;;;;;;;;;;20.60;40.43;98313.47;4454085;32;34292;-86
2022/04/23 11:30:16;;;;;;;;;;;;;;;20.38;41.06;98318.75;4467251;32;32685;-83
2022/04/23 11:32:43;;;;;;;;;;;;;;;20.51;40.33;98326.16;4459888;32;33597;-83
2022/04/23 11:35:10;;;;;;;;;;;;;;;20.45;40.90;98321.12;4466923;32;34040;-83
2022/04/23 11:37:38;;;;;;;;;;;;;;;21.20;38.91;98321.47;4467465;32;34721;-83
2022/04/23 11:40:11;;;;;;;;;;;;;;;20.93;39.54;98314.75;4467312;32;33811;-82
2022/04/23 11:42:39;;;;;;;;;;;;;;;19.45;42.21;98325.78;4468456;32;33462;-83
2022/04/23 11:45:07;;;;;;;;;;;;;;;20.48;41.02;98324.47;4468502;32;34773;-84
2022/04/23 11:47:34;;;;;;;;;;;;;;;20.07;41.10;98331.37;4454203;32;33406;-82
2022/04/23 11:50:14;;;;;;;;;;;;;;;20.57;40.87;98332.06;4467412;32;35014;-85
2022/04/23 11:52:42;;;;;;;;;;;;;;;20.27;41.59;98334.13;4452391;32;33889;-85
2022/04/23 11:55:19;;;;;;;;;;;;;;;19.97;42.68;98324.78;4468157;32;33927;-86
2022/04/23 11:57:54;;;;;;;;;;;;;;;20.22;41.61;98324.66;4467140;32;34199;-82
2022/04/23 12:00:22;;;;;;;;;;;;;;;20.58;40.50;98328.50;4451864;32;34144;-83
2022/04/23 12:02:49;;;;;;;;;;;;;;;19.77;43.27;98323.75;4467943;32;33656;-83
2022/04/23 12:05:29;;;;;;;;;;;;;;;20.19;41.25;98320.38;4467173;32;34785;-82
2022/04/23 12:07:57;;;;;;;;;;;;;;;19.84;42.66;98321.75;4466869;32;34490;-84
2022/04/23 12:10:29;;;;;;;;;;;;;;;19.74;43.43;98328.31;4453343;32;33616;-82
2022/04/23 12:13:00;;;;;;;;;;;;;;;19.31;44.21;98320.16;4468243;32;34105;-82
2022/04/23 12:15:27;;;;;;;;;;;;;;;19.86;43.63;98319.94;4454111;32;33952;-81
2022/04/23 12:17:58;;;;;;;;;;;;;;;19.94;42.99;98320.50;4467718;32;35354;-82
2022/04/23 12:20:25;;;;;;;;;;;;;;;19.17;43.40;98315.44;4467915;32;32944;-82
2022/04/23 12:22:53;;;;;;;;;;;;;;;19.84;42.60;98319.97;4452860;32;33593;-82
2022/04/23 12:25:21;;;;;;;;;;;;;;;20.01;42.05;98311.44;4468071;32;33793;-82
2022/04/23 12:27:54;;;;;;;;;;;;;;;20.25;41.12;98308.75;4468194;32;35324;-82
2022/04/23 12:41:40;;;;;;;;;;;;;;;20.22;40.40;98301.84;4441204;32;33820;-82
2022/04/23 12:44:18;;;;;;;;;;;;;;;20.72;39.86;98296.31;4452446;32;33035;-82
2022/04/23 12:46:52;;;;;;;;;;;;;;;20.81;39.26;98297.69;4439213;32;33593;-82
2022/04/23 12:49:21;;;;;;;;;;;;;;;20.05;40.42;98301.66;4467062;32;33762;-82
2022/04/23 12:51:51;;;;;;;;;;;;;;;19.30;41.97;98307.94;4467726;32;34214;-82
2022/04/23 12:54:21;;;;;;;;;;;;;;;20.19;40.86;98307.22;4467754;32;33399;-82
2022/04/23 12:56:49;;;;;;;;;;;;;;;20.59;40.10;98308.28;4466790;32;33948;-82
2022/04/23 12:59:16;;;;;;;;;;;;;;;19.49;41.50;98317.78;4450977;32;34406;-82
2022/04/23 13:01:43;;;;;;;;;;;;;;;19.70;40.58;98311.78;4467421;32;34014;-82
2022/04/23 13:04:13;;;;;;;;;;;;;;;20.48;39.52;98311.31;4466833;32;32986;-82
2022/04/23 13:09:26;;;;;;;;;;;;;;;21.64;36.51;98308.13;4452186;32;35016;-82
2022/04/23 13:11:57;;;;;;;;;;;;;;;21.98;36.52;98304.75;4452228;32;34227;-82
2022/04/23 13:14:25;;;;;;;;;;;;;;;21.70;36.73;98304.31;4456238;32;33244;-82
2022/04/23 13:16:52;;;;;;;;;;;;;;;21.98;36.49;98306.56;4467409;32;34203;-82
2022/04/23 13:19:22;;;;;;;;;;;;;;;22.34;36.16;98301.31;4467425;32;34765;-81
2022/04/23 13:21:50;;;;;;;;;;;;;;;21.41;38.11;98314.44;4467710;32;34919;-81
2022/04/23 13:24:19;;;;;;;;;;;;;;;22.11;37.07;98297.94;4466838;32;33105;-82
2022/04/23 13:26:46;;;;;;;;;;;;;;;22.23;37.30;98293.91;4466861;32;35033;-82
2022/04/23 13:29:14;;;;;;;;;;;;;;;21.84;37.95;98294.00;4466860;32;35374;-81
2022/04/23 13:31:41;;;;;;;;;;;;;;;21.49;38.14;98296.47;4458531;32;33941;-83
2022/04/23 13:34:08;;;;;;;;;;;;;;;22.36;36.68;98283.63;4451758;32;34320;-82
2022/04/23 13:36:36;;;;;;;;;;;;;;;22.51;36.27;98293.41;4459883;32;33244;-82
2022/04/23 13:39:03;;;;;;;;;;;;;;;22.14;36.25;98304.06;4467608;32;34484;-83